sensor_id;sensor_type;location;lat;lon;timestamp;P1;durP1;ratioP1;P2;durP2;ratioP2
58244;SDS011;44550;43.864;25.986;2024-02-26T00:03:09;31.15;;;19.13;;
58244;SDS011;44550;43.864;25.986;2024-02-26T00:07:16;31.80;;;23.88;;
58244;SDS011;44550;43.864;25.986;2024-02-26T00:11:38;48.40;;;29.35;;
58244;SDS011;44550;43.864;25.986;2024-02-26T00:15:48;35.28;;;19.60;;
58244;SDS011;44550;43.864;25.986;2024-02-26T00:20:03;23.75;;;17.95;;
58244;SDS011;44550;43.864;25.986;2024-02-26T00:24:16;30.25;;;18.67;;
58244;SDS011;44550;43.864;25.986;2024-02-26T00:28:20;29.70;;;19.17;;
58244;SDS011;44550;43.864;25.986;2024-02-26T00:32:24;28.35;;;19.00;;
58244;SDS011;44550;43.864;25.986;2024-02-26T00:36:36;31.50;;;20.20;;
58244;SDS011;44550;43.864;25.986;2024-02-26T00:40:47;26.80;;;19.13;;
58244;SDS011;44550;43.864;25.986;2024-02-26T00:45:01;29.48;;;20.20;;
58244;SDS011;44550;43.864;25.986;2024-02-26T00:49:27;29.42;;;20.77;;
58244;SDS011;44550;43.864;25.986;2024-02-26T00:53:38;28.10;;;18.70;;
58244;SDS011;44550;43.864;25.986;2024-02-26T00:57:42;27.55;;;20.33;;
58244;SDS011;44550;43.864;25.986;2024-02-26T01:01:48;27.33;;;19.67;;
58244;SDS011;44550;43.864;25.986;2024-02-26T01:05:58;27.95;;;17.33;;
58244;SDS011;44550;43.864;25.986;2024-02-26T01:10:11;22.35;;;14.30;;
58244;SDS011;44550;43.864;25.986;2024-02-26T01:14:13;24.63;;;16.48;;
58244;SDS011;44550;43.864;25.986;2024-02-26T01:18:23;19.05;;;13.73;;
58244;SDS011;44550;43.864;25.986;2024-02-26T01:22:28;20.38;;;15.40;;
58244;SDS011;44550;43.864;25.986;2024-02-26T01:26:40;21.65;;;17.15;;
58244;SDS011;44550;43.864;25.986;2024-02-26T01:30:51;25.88;;;18.85;;
58244;SDS011;44550;43.864;25.986;2024-02-26T01:35:02;16.45;;;13.13;;
58244;SDS011;44550;43.864;25.986;2024-02-26T01:39:16;25.85;;;16.13;;
58244;SDS011;44550;43.864;25.986;2024-02-26T01:43:27;25.45;;;17.40;;
58244;SDS011;44550;43.864;25.986;2024-02-26T01:47:46;25.85;;;17.30;;
58244;SDS011;44550;43.864;25.986;2024-02-26T01:56:31;21.70;;;15.95;;
58244;SDS011;44550;43.864;25.986;2024-02-26T02:00:46;27.35;;;17.80;;
58244;SDS011;44550;43.864;25.986;2024-02-26T02:04:51;23.88;;;17.00;;
58244;SDS011;44550;43.864;25.986;2024-02-26T02:09:35;25.42;;;18.20;;
58244;SDS011;44550;43.864;25.986;2024-02-26T02:13:46;25.55;;;18.75;;
58244;SDS011;44550;43.864;25.986;2024-02-26T02:17:51;24.20;;;15.93;;
58244;SDS011;44550;43.864;25.986;2024-02-26T02:22:01;27.27;;;17.93;;
58244;SDS011;44550;43.864;25.986;2024-02-26T02:26:10;26.63;;;18.80;;
58244;SDS011;44550;43.864;25.986;2024-02-26T02:30:20;34.28;;;21.83;;
58244;SDS011;44550;43.864;25.986;2024-02-26T02:39:12;22.92;;;17.42;;
58244;SDS011;44550;43.864;25.986;2024-02-26T02:43:45;30.50;;;17.50;;
58244;SDS011;44550;43.864;25.986;2024-02-26T02:47:49;22.13;;;16.50;;
58244;SDS011;44550;43.864;25.986;2024-02-26T02:51:53;27.40;;;17.70;;
58244;SDS011;44550;43.864;25.986;2024-02-26T02:56:09;24.45;;;16.95;;
58244;SDS011;44550;43.864;25.986;2024-02-26T03:00:18;31.40;;;21.23;;
58244;SDS011;44550;43.864;25.986;2024-02-26T03:04:26;29.52;;;20.40;;
58244;SDS011;44550;43.864;25.986;2024-02-26T03:08:32;21.17;;;16.10;;
58244;SDS011;44550;43.864;25.986;2024-02-26T03:12:41;25.33;;;17.77;;
58244;SDS011;44550;43.864;25.986;2024-02-26T03:16:47;21.77;;;16.95;;
58244;SDS011;44550;43.864;25.986;2024-02-26T03:21:11;25.08;;;15.70;;
58244;SDS011;44550;43.864;25.986;2024-02-26T03:25:35;27.30;;;19.88;;
58244;SDS011;44550;43.864;25.986;2024-02-26T03:29:51;25.65;;;18.13;;
58244;SDS011;44550;43.864;25.986;2024-02-26T03:33:55;30.27;;;18.92;;
58244;SDS011;44550;43.864;25.986;2024-02-26T03:38:05;22.73;;;17.83;;
58244;SDS011;44550;43.864;25.986;2024-02-26T03:42:08;25.17;;;18.73;;
58244;SDS011;44550;43.864;25.986;2024-02-26T03:46:24;21.02;;;16.05;;
58244;SDS011;44550;43.864;25.986;2024-02-26T03:50:36;32.83;;;20.85;;
58244;SDS011;44550;43.864;25.986;2024-02-26T03:54:38;21.73;;;15.77;;
58244;SDS011;44550;43.864;25.986;2024-02-26T03:58:50;21.40;;;15.30;;
58244;SDS011;44550;43.864;25.986;2024-02-26T04:03:10;20.35;;;15.70;;
58244;SDS011;44550;43.864;25.986;2024-02-26T04:07:14;20.73;;;14.13;;
58244;SDS011;44550;43.864;25.986;2024-02-26T04:11:30;25.35;;;20.35;;
58244;SDS011;44550;43.864;25.986;2024-02-26T04:15:48;22.33;;;14.80;;
58244;SDS011;44550;43.864;25.986;2024-02-26T04:19:56;22.20;;;17.40;;
58244;SDS011;44550;43.864;25.986;2024-02-26T04:24:11;22.73;;;16.08;;
58244;SDS011;44550;43.864;25.986;2024-02-26T04:28:14;17.35;;;13.25;;
58244;SDS011;44550;43.864;25.986;2024-02-26T04:32:27;19.08;;;13.18;;
58244;SDS011;44550;43.864;25.986;2024-02-26T04:36:42;16.98;;;12.05;;
58244;SDS011;44550;43.864;25.986;2024-02-26T04:40:46;16.95;;;12.60;;
58244;SDS011;44550;43.864;25.986;2024-02-26T04:44:49;16.02;;;13.20;;
58244;SDS011;44550;43.864;25.986;2024-02-26T04:48:59;17.23;;;13.60;;
58244;SDS011;44550;43.864;25.986;2024-02-26T04:53:08;24.55;;;17.10;;
58244;SDS011;44550;43.864;25.986;2024-02-26T04:57:34;27.13;;;19.38;;
58244;SDS011;44550;43.864;25.986;2024-02-26T05:02:19;26.67;;;18.17;;
58244;SDS011;44550;43.864;25.986;2024-02-26T05:06:48;33.58;;;22.58;;
58244;SDS011;44550;43.864;25.986;2024-02-26T05:11:43;26.60;;;17.42;;
58244;SDS011;44550;43.864;25.986;2024-02-26T05:16:20;28.88;;;22.23;;
58244;SDS011;44550;43.864;25.986;2024-02-26T05:20:51;18.85;;;14.80;;
58244;SDS011;44550;43.864;25.986;2024-02-26T05:25:23;23.15;;;13.73;;
58244;SDS011;44550;43.864;25.986;2024-02-26T05:30:16;28.70;;;21.42;;
58244;SDS011;44550;43.864;25.986;2024-02-26T05:34:49;25.10;;;15.32;;
58244;SDS011;44550;43.864;25.986;2024-02-26T05:39:38;28.92;;;17.30;;
58244;SDS011;44550;43.864;25.986;2024-02-26T05:43:55;26.23;;;17.15;;
58244;SDS011;44550;43.864;25.986;2024-02-26T05:53:55;30.52;;;20.58;;
58244;SDS011;44550;43.864;25.986;2024-02-26T05:58:26;40.17;;;29.38;;
58244;SDS011;44550;43.864;25.986;2024-02-26T06:03:19;38.63;;;26.95;;
58244;SDS011;44550;43.864;25.986;2024-02-26T06:07:49;32.25;;;23.73;;
58244;SDS011;44550;43.864;25.986;2024-02-26T06:13:04;28.55;;;18.38;;
58244;SDS011;44550;43.864;25.986;2024-02-26T06:17:59;23.77;;;16.80;;
58244;SDS011;44550;43.864;25.986;2024-02-26T06:27:51;25.30;;;17.33;;
58244;SDS011;44550;43.864;25.986;2024-02-26T06:31:56;32.38;;;23.25;;
58244;SDS011;44550;43.864;25.986;2024-02-26T06:35:55;28.27;;;19.65;;
58244;SDS011;44550;43.864;25.986;2024-02-26T06:39:55;39.53;;;25.90;;
58244;SDS011;44550;43.864;25.986;2024-02-26T06:43:55;28.25;;;22.23;;
58244;SDS011;44550;43.864;25.986;2024-02-26T06:47:57;28.00;;;19.45;;
58244;SDS011;44550;43.864;25.986;2024-02-26T06:52:00;27.20;;;19.50;;
58244;SDS011;44550;43.864;25.986;2024-02-26T06:56:00;26.95;;;17.38;;
58244;SDS011;44550;43.864;25.986;2024-02-26T07:00:01;29.52;;;19.20;;
58244;SDS011;44550;43.864;25.986;2024-02-26T07:04:04;32.45;;;20.08;;
58244;SDS011;44550;43.864;25.986;2024-02-26T07:08:07;31.25;;;21.15;;
58244;SDS011;44550;43.864;25.986;2024-02-26T07:12:07;30.55;;;19.20;;
58244;SDS011;44550;43.864;25.986;2024-02-26T07:16:08;26.95;;;17.50;;
58244;SDS011;44550;43.864;25.986;2024-02-26T07:20:11;30.00;;;19.58;;
58244;SDS011;44550;43.864;25.986;2024-02-26T07:24:11;38.58;;;23.75;;
58244;SDS011;44550;43.864;25.986;2024-02-26T07:28:11;36.33;;;19.52;;
58244;SDS011;44550;43.864;25.986;2024-02-26T07:32:11;28.90;;;20.60;;
58244;SDS011;44550;43.864;25.986;2024-02-26T07:36:18;35.10;;;23.42;;
58244;SDS011;44550;43.864;25.986;2024-02-26T07:40:17;29.42;;;19.48;;
58244;SDS011;44550;43.864;25.986;2024-02-26T07:44:20;33.47;;;19.92;;
58244;SDS011;44550;43.864;25.986;2024-02-26T07:48:20;40.88;;;26.75;;
58244;SDS011;44550;43.864;25.986;2024-02-26T07:52:22;31.15;;;20.05;;
58244;SDS011;44550;43.864;25.986;2024-02-26T07:56:22;38.88;;;19.75;;
58244;SDS011;44550;43.864;25.986;2024-02-26T08:00:22;32.10;;;16.35;;
58244;SDS011;44550;43.864;25.986;2024-02-26T08:04:22;28.42;;;19.35;;
58244;SDS011;44550;43.864;25.986;2024-02-26T08:08:24;32.55;;;20.05;;
58244;SDS011;44550;43.864;25.986;2024-02-26T08:12:24;45.38;;;22.25;;
58244;SDS011;44550;43.864;25.986;2024-02-26T08:16:24;29.52;;;16.35;;
58244;SDS011;44550;43.864;25.986;2024-02-26T08:20:23;32.05;;;18.25;;
58244;SDS011;44550;43.864;25.986;2024-02-26T08:24:25;28.70;;;17.65;;
58244;SDS011;44550;43.864;25.986;2024-02-26T08:28:25;34.75;;;17.25;;
58244;SDS011;44550;43.864;25.986;2024-02-26T08:32:24;29.83;;;16.25;;
58244;SDS011;44550;43.864;25.986;2024-02-26T08:36:24;27.02;;;17.17;;
58244;SDS011;44550;43.864;25.986;2024-02-26T08:40:26;31.10;;;14.45;;
58244;SDS011;44550;43.864;25.986;2024-02-26T08:44:26;27.75;;;15.55;;
58244;SDS011;44550;43.864;25.986;2024-02-26T08:48:25;36.67;;;18.60;;
58244;SDS011;44550;43.864;25.986;2024-02-26T08:52:25;30.92;;;15.93;;
58244;SDS011;44550;43.864;25.986;2024-02-26T08:56:30;21.08;;;15.10;;
58244;SDS011;44550;43.864;25.986;2024-02-26T09:00:30;33.53;;;14.98;;
58244;SDS011;44550;43.864;25.986;2024-02-26T09:04:31;19.13;;;13.90;;
58244;SDS011;44550;43.864;25.986;2024-02-26T09:08:30;29.40;;;15.20;;
58244;SDS011;44550;43.864;25.986;2024-02-26T09:12:34;17.13;;;12.38;;
58244;SDS011;44550;43.864;25.986;2024-02-26T09:16:34;20.63;;;13.07;;
58244;SDS011;44550;43.864;25.986;2024-02-26T09:20:34;15.07;;;12.20;;
58244;SDS011;44550;43.864;25.986;2024-02-26T09:24:33;17.40;;;11.45;;
58244;SDS011;44550;43.864;25.986;2024-02-26T09:28:35;22.20;;;13.98;;
58244;SDS011;44550;43.864;25.986;2024-02-26T09:32:35;16.52;;;11.70;;
58244;SDS011;44550;43.864;25.986;2024-02-26T09:36:35;17.75;;;12.75;;
58244;SDS011;44550;43.864;25.986;2024-02-26T09:40:42;17.60;;;11.90;;
58244;SDS011;44550;43.864;25.986;2024-02-26T09:44:45;19.67;;;13.40;;
58244;SDS011;44550;43.864;25.986;2024-02-26T09:48:46;19.52;;;14.07;;
58244;SDS011;44550;43.864;25.986;2024-02-26T09:52:50;19.17;;;12.02;;
58244;SDS011;44550;43.864;25.986;2024-02-26T09:56:50;19.17;;;12.73;;
58244;SDS011;44550;43.864;25.986;2024-02-26T10:01:03;17.50;;;11.60;;
58244;SDS011;44550;43.864;25.986;2024-02-26T10:05:10;20.37;;;13.20;;
58244;SDS011;44550;43.864;25.986;2024-02-26T10:09:11;21.40;;;14.23;;
58244;SDS011;44550;43.864;25.986;2024-02-26T10:13:13;28.83;;;15.18;;
58244;SDS011;44550;43.864;25.986;2024-02-26T10:17:14;21.83;;;14.75;;
58244;SDS011;44550;43.864;25.986;2024-02-26T10:21:15;22.73;;;15.30;;
58244;SDS011;44550;43.864;25.986;2024-02-26T10:25:16;21.63;;;14.20;;
58244;SDS011;44550;43.864;25.986;2024-02-26T10:29:17;17.90;;;13.73;;
58244;SDS011;44550;43.864;25.986;2024-02-26T10:33:19;19.70;;;14.25;;
58244;SDS011;44550;43.864;25.986;2024-02-26T10:37:19;16.00;;;13.85;;
58244;SDS011;44550;43.864;25.986;2024-02-26T10:41:19;25.80;;;15.02;;
58244;SDS011;44550;43.864;25.986;2024-02-26T10:45:19;16.48;;;13.70;;
58244;SDS011;44550;43.864;25.986;2024-02-26T10:49:21;23.38;;;14.35;;
58244;SDS011;44550;43.864;25.986;2024-02-26T10:53:22;20.25;;;14.45;;
58244;SDS011;44550;43.864;25.986;2024-02-26T10:57:23;21.00;;;14.85;;
58244;SDS011;44550;43.864;25.986;2024-02-26T11:01:27;17.98;;;13.50;;
58244;SDS011;44550;43.864;25.986;2024-02-26T11:05:35;19.17;;;11.95;;
58244;SDS011;44550;43.864;25.986;2024-02-26T11:09:35;21.98;;;16.80;;
58244;SDS011;44550;43.864;25.986;2024-02-26T11:13:40;16.02;;;13.70;;
58244;SDS011;44550;43.864;25.986;2024-02-26T11:17:44;14.45;;;10.88;;
58244;SDS011;44550;43.864;25.986;2024-02-26T11:21:49;17.90;;;14.65;;
58244;SDS011;44550;43.864;25.986;2024-02-26T11:25:49;18.52;;;10.55;;
58244;SDS011;44550;43.864;25.986;2024-02-26T11:29:50;15.73;;;10.77;;
58244;SDS011;44550;43.864;25.986;2024-02-26T11:33:54;16.38;;;11.43;;
58244;SDS011;44550;43.864;25.986;2024-02-26T11:37:57;20.85;;;11.35;;
58244;SDS011;44550;43.864;25.986;2024-02-26T11:42:04;13.20;;;10.13;;
58244;SDS011;44550;43.864;25.986;2024-02-26T11:46:05;12.48;;;9.98;;
58244;SDS011;44550;43.864;25.986;2024-02-26T11:50:34;18.70;;;11.60;;
58244;SDS011;44550;43.864;25.986;2024-02-26T11:54:46;13.00;;;9.63;;
58244;SDS011;44550;43.864;25.986;2024-02-26T11:58:47;15.10;;;10.60;;
58244;SDS011;44550;43.864;25.986;2024-02-26T12:02:49;18.02;;;10.93;;
58244;SDS011;44550;43.864;25.986;2024-02-26T12:06:55;13.20;;;9.18;;
58244;SDS011;44550;43.864;25.986;2024-02-26T12:10:58;14.93;;;9.15;;
58244;SDS011;44550;43.864;25.986;2024-02-26T12:14:59;16.70;;;13.88;;
58244;SDS011;44550;43.864;25.986;2024-02-26T12:19:02;21.65;;;11.23;;
58244;SDS011;44550;43.864;25.986;2024-02-26T12:23:04;13.25;;;9.80;;
58244;SDS011;44550;43.864;25.986;2024-02-26T12:27:06;21.83;;;14.07;;
58244;SDS011;44550;43.864;25.986;2024-02-26T12:31:07;16.13;;;12.48;;
58244;SDS011;44550;43.864;25.986;2024-02-26T12:35:07;15.98;;;11.82;;
58244;SDS011;44550;43.864;25.986;2024-02-26T12:39:07;19.38;;;12.38;;
58244;SDS011;44550;43.864;25.986;2024-02-26T12:43:09;18.75;;;12.75;;
58244;SDS011;44550;43.864;25.986;2024-02-26T12:47:09;18.95;;;13.40;;
58244;SDS011;44550;43.864;25.986;2024-02-26T12:51:14;14.75;;;10.52;;
58244;SDS011;44550;43.864;25.986;2024-02-26T12:55:16;23.38;;;11.23;;
58244;SDS011;44550;43.864;25.986;2024-02-26T12:59:20;22.55;;;10.98;;
58244;SDS011;44550;43.864;25.986;2024-02-26T13:03:23;14.20;;;10.18;;
58244;SDS011;44550;43.864;25.986;2024-02-26T13:07:24;19.02;;;11.05;;
58244;SDS011;44550;43.864;25.986;2024-02-26T13:11:24;16.73;;;9.73;;
58244;SDS011;44550;43.864;25.986;2024-02-26T13:15:29;21.38;;;10.68;;
58244;SDS011;44550;43.864;25.986;2024-02-26T13:19:30;19.48;;;10.80;;
58244;SDS011;44550;43.864;25.986;2024-02-26T13:23:30;12.85;;;10.57;;
58244;SDS011;44550;43.864;25.986;2024-02-26T13:27:30;18.58;;;10.20;;
58244;SDS011;44550;43.864;25.986;2024-02-26T13:31:32;14.52;;;9.25;;
58244;SDS011;44550;43.864;25.986;2024-02-26T13:35:41;19.58;;;9.65;;
58244;SDS011;44550;43.864;25.986;2024-02-26T13:39:41;10.77;;;8.80;;
58244;SDS011;44550;43.864;25.986;2024-02-26T13:43:41;12.82;;;9.50;;
58244;SDS011;44550;43.864;25.986;2024-02-26T13:47:43;12.93;;;7.50;;
58244;SDS011;44550;43.864;25.986;2024-02-26T13:51:43;24.60;;;9.13;;
58244;SDS011;44550;43.864;25.986;2024-02-26T13:55:43;19.73;;;9.18;;
58244;SDS011;44550;43.864;25.986;2024-02-26T13:59:43;17.95;;;9.77;;
58244;SDS011;44550;43.864;25.986;2024-02-26T14:03:45;18.63;;;10.02;;
58244;SDS011;44550;43.864;25.986;2024-02-26T14:07:45;18.85;;;9.30;;
58244;SDS011;44550;43.864;25.986;2024-02-26T14:11:49;13.83;;;8.40;;
58244;SDS011;44550;43.864;25.986;2024-02-26T14:15:49;20.58;;;11.80;;
58244;SDS011;44550;43.864;25.986;2024-02-26T14:19:51;13.32;;;8.57;;
58244;SDS011;44550;43.864;25.986;2024-02-26T14:23:50;15.25;;;8.73;;
58244;SDS011;44550;43.864;25.986;2024-02-26T14:27:50;17.05;;;8.27;;
58244;SDS011;44550;43.864;25.986;2024-02-26T14:31:49;12.55;;;7.88;;
58244;SDS011;44550;43.864;25.986;2024-02-26T14:35:51;18.15;;;9.35;;
58244;SDS011;44550;43.864;25.986;2024-02-26T14:39:51;16.15;;;9.18;;
58244;SDS011;44550;43.864;25.986;2024-02-26T14:43:51;11.38;;;7.10;;
58244;SDS011;44550;43.864;25.986;2024-02-26T14:47:50;14.68;;;7.88;;
58244;SDS011;44550;43.864;25.986;2024-02-26T14:51:52;11.43;;;7.18;;
58244;SDS011;44550;43.864;25.986;2024-02-26T14:55:52;15.48;;;7.55;;
58244;SDS011;44550;43.864;25.986;2024-02-26T14:59:52;12.15;;;6.60;;
58244;SDS011;44550;43.864;25.986;2024-02-26T15:03:51;23.60;;;7.80;;
58244;SDS011;44550;43.864;25.986;2024-02-26T15:07:54;13.48;;;6.78;;
58244;SDS011;44550;43.864;25.986;2024-02-26T15:11:53;15.93;;;7.72;;
58244;SDS011;44550;43.864;25.986;2024-02-26T15:15:54;80.15;;;13.63;;
58244;SDS011;44550;43.864;25.986;2024-02-26T15:19:53;12.68;;;6.28;;
58244;SDS011;44550;43.864;25.986;2024-02-26T15:23:56;15.73;;;8.05;;
58244;SDS011;44550;43.864;25.986;2024-02-26T15:28:04;17.88;;;9.43;;
58244;SDS011;44550;43.864;25.986;2024-02-26T15:32:09;11.55;;;7.78;;
58244;SDS011;44550;43.864;25.986;2024-02-26T15:36:10;17.55;;;8.90;;
58244;SDS011;44550;43.864;25.986;2024-02-26T15:40:12;12.15;;;8.07;;
58244;SDS011;44550;43.864;25.986;2024-02-26T15:44:12;15.13;;;7.82;;
58244;SDS011;44550;43.864;25.986;2024-02-26T15:48:12;14.30;;;7.78;;
58244;SDS011;44550;43.864;25.986;2024-02-26T15:52:12;13.30;;;7.72;;
58244;SDS011;44550;43.864;25.986;2024-02-26T15:56:14;16.65;;;7.32;;
58244;SDS011;44550;43.864;25.986;2024-02-26T16:00:17;12.68;;;8.07;;
58244;SDS011;44550;43.864;25.986;2024-02-26T16:04:17;14.52;;;6.80;;
58244;SDS011;44550;43.864;25.986;2024-02-26T16:08:19;12.50;;;7.65;;
58244;SDS011;44550;43.864;25.986;2024-02-26T16:12:23;16.02;;;10.32;;
58244;SDS011;44550;43.864;25.986;2024-02-26T16:16:31;16.67;;;10.63;;
58244;SDS011;44550;43.864;25.986;2024-02-26T16:20:33;11.07;;;7.30;;
58244;SDS011;44550;43.864;25.986;2024-02-26T16:24:33;12.68;;;6.50;;
58244;SDS011;44550;43.864;25.986;2024-02-26T16:28:37;8.02;;;5.88;;
58244;SDS011;44550;43.864;25.986;2024-02-26T16:32:38;11.57;;;7.15;;
58244;SDS011;44550;43.864;25.986;2024-02-26T16:36:40;11.02;;;6.90;;
58244;SDS011;44550;43.864;25.986;2024-02-26T16:40:40;11.85;;;6.32;;
58244;SDS011;44550;43.864;25.986;2024-02-26T16:44:42;13.73;;;6.05;;
58244;SDS011;44550;43.864;25.986;2024-02-26T16:48:42;12.55;;;6.03;;
58244;SDS011;44550;43.864;25.986;2024-02-26T16:52:42;11.75;;;6.53;;
58244;SDS011;44550;43.864;25.986;2024-02-26T16:56:41;13.45;;;6.03;;
58244;SDS011;44550;43.864;25.986;2024-02-26T17:00:44;10.00;;;7.75;;
58244;SDS011;44550;43.864;25.986;2024-02-26T17:04:44;13.35;;;6.10;;
58244;SDS011;44550;43.864;25.986;2024-02-26T17:08:44;9.50;;;5.55;;
58244;SDS011;44550;43.864;25.986;2024-02-26T17:12:43;9.68;;;5.78;;
58244;SDS011;44550;43.864;25.986;2024-02-26T17:16:49;9.88;;;6.30;;
58244;SDS011;44550;43.864;25.986;2024-02-26T17:20:52;7.20;;;5.40;;
58244;SDS011;44550;43.864;25.986;2024-02-26T17:24:54;9.00;;;6.35;;
58244;SDS011;44550;43.864;25.986;2024-02-26T17:28:57;10.73;;;6.15;;
58244;SDS011;44550;43.864;25.986;2024-02-26T17:33:03;13.05;;;7.80;;
58244;SDS011;44550;43.864;25.986;2024-02-26T17:37:04;11.18;;;5.47;;
58244;SDS011;44550;43.864;25.986;2024-02-26T17:45:05;5.70;;;4.47;;
58244;SDS011;44550;43.864;25.986;2024-02-26T17:49:07;12.48;;;5.60;;
58244;SDS011;44550;43.864;25.986;2024-02-26T17:53:07;9.45;;;5.63;;
58244;SDS011;44550;43.864;25.986;2024-02-26T17:57:10;10.55;;;4.13;;
58244;SDS011;44550;43.864;25.986;2024-02-26T18:01:14;10.18;;;5.38;;
58244;SDS011;44550;43.864;25.986;2024-02-26T18:05:16;5.00;;;3.70;;
58244;SDS011;44550;43.864;25.986;2024-02-26T18:09:16;6.28;;;3.53;;
58244;SDS011;44550;43.864;25.986;2024-02-26T18:13:15;8.77;;;4.47;;
58244;SDS011;44550;43.864;25.986;2024-02-26T18:17:15;5.47;;;3.75;;
58244;SDS011;44550;43.864;25.986;2024-02-26T18:21:18;7.60;;;4.18;;
58244;SDS011;44550;43.864;25.986;2024-02-26T18:25:18;15.35;;;6.60;;
58244;SDS011;44550;43.864;25.986;2024-02-26T18:29:18;6.55;;;5.15;;
58244;SDS011;44550;43.864;25.986;2024-02-26T18:33:18;8.48;;;6.10;;
58244;SDS011;44550;43.864;25.986;2024-02-26T18:37:21;8.57;;;5.30;;
58244;SDS011;44550;43.864;25.986;2024-02-26T18:41:24;6.43;;;3.88;;
58244;SDS011;44550;43.864;25.986;2024-02-26T18:45:26;6.47;;;5.38;;
58244;SDS011;44550;43.864;25.986;2024-02-26T18:49:26;6.72;;;3.97;;
58244;SDS011;44550;43.864;25.986;2024-02-26T18:53:37;10.45;;;5.78;;
58244;SDS011;44550;43.864;25.986;2024-02-26T18:58:14;10.70;;;6.60;;
58244;SDS011;44550;43.864;25.986;2024-02-26T19:03:04;8.23;;;5.70;;
58244;SDS011;44550;43.864;25.986;2024-02-26T19:07:04;7.50;;;5.22;;
58244;SDS011;44550;43.864;25.986;2024-02-26T19:11:07;7.05;;;4.20;;
58244;SDS011;44550;43.864;25.986;2024-02-26T19:15:09;7.10;;;4.72;;
58244;SDS011;44550;43.864;25.986;2024-02-26T19:19:13;6.68;;;4.10;;
58244;SDS011;44550;43.864;25.986;2024-02-26T19:23:13;13.98;;;5.80;;
58244;SDS011;44550;43.864;25.986;2024-02-26T19:27:15;9.48;;;6.00;;
58244;SDS011;44550;43.864;25.986;2024-02-26T19:31:15;9.95;;;5.15;;
58244;SDS011;44550;43.864;25.986;2024-02-26T19:35:15;11.43;;;4.72;;
58244;SDS011;44550;43.864;25.986;2024-02-26T19:39:15;11.10;;;6.32;;
58244;SDS011;44550;43.864;25.986;2024-02-26T19:47:43;12.23;;;8.35;;
58244;SDS011;44550;43.864;25.986;2024-02-26T19:51:45;10.52;;;7.78;;
58244;SDS011;44550;43.864;25.986;2024-02-26T19:55:50;10.55;;;7.32;;
58244;SDS011;44550;43.864;25.986;2024-02-26T20:03:54;15.32;;;6.57;;
58244;SDS011;44550;43.864;25.986;2024-02-26T20:07:54;11.52;;;5.93;;
58244;SDS011;44550;43.864;25.986;2024-02-26T20:11:54;14.25;;;7.75;;
58244;SDS011;44550;43.864;25.986;2024-02-26T20:15:58;13.23;;;7.63;;
58244;SDS011;44550;43.864;25.986;2024-02-26T20:19:58;13.95;;;5.57;;
58244;SDS011;44550;43.864;25.986;2024-02-26T20:23:59;9.18;;;4.75;;
58244;SDS011;44550;43.864;25.986;2024-02-26T20:28:04;12.70;;;5.63;;
58244;SDS011;44550;43.864;25.986;2024-02-26T20:32:09;13.15;;;6.30;;
58244;SDS011;44550;43.864;25.986;2024-02-26T20:36:14;11.02;;;6.15;;
58244;SDS011;44550;43.864;25.986;2024-02-26T20:40:17;9.02;;;5.63;;
58244;SDS011;44550;43.864;25.986;2024-02-26T20:44:19;9.13;;;6.10;;
58244;SDS011;44550;43.864;25.986;2024-02-26T20:48:28;15.80;;;7.40;;
58244;SDS011;44550;43.864;25.986;2024-02-26T20:52:33;17.08;;;6.60;;
58244;SDS011;44550;43.864;25.986;2024-02-26T20:56:35;10.10;;;6.07;;
58244;SDS011;44550;43.864;25.986;2024-02-26T21:00:36;12.38;;;6.32;;
58244;SDS011;44550;43.864;25.986;2024-02-26T21:04:42;10.40;;;5.68;;
58244;SDS011;44550;43.864;25.986;2024-02-26T21:08:42;13.77;;;6.63;;
58244;SDS011;44550;43.864;25.986;2024-02-26T21:12:45;11.77;;;6.18;;
58244;SDS011;44550;43.864;25.986;2024-02-26T21:16:48;9.23;;;6.60;;
58244;SDS011;44550;43.864;25.986;2024-02-26T21:20:50;12.68;;;7.32;;
58244;SDS011;44550;43.864;25.986;2024-02-26T21:24:51;12.75;;;6.47;;
58244;SDS011;44550;43.864;25.986;2024-02-26T21:32:50;10.05;;;6.60;;
58244;SDS011;44550;43.864;25.986;2024-02-26T21:36:52;16.88;;;9.85;;
58244;SDS011;44550;43.864;25.986;2024-02-26T21:40:52;10.30;;;5.63;;
58244;SDS011;44550;43.864;25.986;2024-02-26T21:44:51;12.90;;;7.20;;
58244;SDS011;44550;43.864;25.986;2024-02-26T21:48:51;14.80;;;8.43;;
58244;SDS011;44550;43.864;25.986;2024-02-26T21:52:53;12.00;;;6.68;;
58244;SDS011;44550;43.864;25.986;2024-02-26T21:56:52;14.55;;;7.13;;
58244;SDS011;44550;43.864;25.986;2024-02-26T22:00:52;11.38;;;7.40;;
58244;SDS011;44550;43.864;25.986;2024-02-26T22:04:52;13.55;;;6.25;;
58244;SDS011;44550;43.864;25.986;2024-02-26T22:08:55;13.90;;;6.93;;
58244;SDS011;44550;43.864;25.986;2024-02-26T22:12:55;17.13;;;8.07;;
58244;SDS011;44550;43.864;25.986;2024-02-26T22:16:55;12.63;;;8.00;;
58244;SDS011;44550;43.864;25.986;2024-02-26T22:24:56;14.73;;;8.80;;
58244;SDS011;44550;43.864;25.986;2024-02-26T22:28:55;10.80;;;7.47;;
58244;SDS011;44550;43.864;25.986;2024-02-26T22:36:56;18.73;;;7.72;;
58244;SDS011;44550;43.864;25.986;2024-02-26T22:44:57;15.00;;;8.27;;
58244;SDS011;44550;43.864;25.986;2024-02-26T22:48:58;15.65;;;8.77;;
58244;SDS011;44550;43.864;25.986;2024-02-26T22:52:58;18.83;;;10.45;;
58244;SDS011;44550;43.864;25.986;2024-02-26T23:01:00;16.90;;;8.50;;
58244;SDS011;44550;43.864;25.986;2024-02-26T23:05:00;16.25;;;8.10;;
58244;SDS011;44550;43.864;25.986;2024-02-26T23:09:00;15.75;;;8.73;;
58244;SDS011;44550;43.864;25.986;2024-02-26T23:13:04;15.98;;;7.72;;
58244;SDS011;44550;43.864;25.986;2024-02-26T23:17:04;15.30;;;9.45;;
58244;SDS011;44550;43.864;25.986;2024-02-26T23:25:06;23.27;;;12.00;;
58244;SDS011;44550;43.864;25.986;2024-02-26T23:29:08;12.07;;;7.10;;
58244;SDS011;44550;43.864;25.986;2024-02-26T23:33:08;17.92;;;8.75;;
58244;SDS011;44550;43.864;25.986;2024-02-26T23:37:07;16.05;;;7.85;;
58244;SDS011;44550;43.864;25.986;2024-02-26T23:41:07;15.82;;;8.35;;
58244;SDS011;44550;43.864;25.986;2024-02-26T23:45:10;18.27;;;7.88;;
58244;SDS011;44550;43.864;25.986;2024-02-26T23:49:10;16.92;;;9.30;;
58244;SDS011;44550;43.864;25.986;2024-02-26T23:53:09;16.02;;;8.73;;
